createdAt,value
2023-01-13T00:01:25.062Z,89.27
2023-01-13T00:03:51.673Z,89.26
2023-01-13T00:06:21.603Z,89.27
2023-01-13T00:08:48.662Z,89.14
2023-01-13T00:11:15.405Z,89.06
2023-01-13T00:13:42.072Z,88.66
2023-01-13T00:16:11.404Z,89.00
2023-01-13T00:18:38.492Z,89.02
2023-01-13T00:21:07.153Z,88.97
2023-01-13T00:23:35.727Z,88.60
2023-01-13T00:26:04.998Z,89.08
2023-01-13T00:28:31.549Z,88.63
2023-01-13T00:31:05.390Z,88.50
2023-01-13T00:33:32.078Z,88.57
2023-01-13T00:35:59.864Z,88.65
2023-01-13T00:38:27.185Z,88.66
2023-01-13T00:40:59.318Z,88.53
2023-01-13T00:43:26.734Z,88.20
2023-01-13T00:45:53.577Z,88.42
2023-01-13T00:48:21.365Z,88.42
2023-01-13T00:50:55.014Z,88.51
2023-01-13T00:53:21.996Z,88.32
2023-01-13T00:55:48.594Z,88.46
2023-01-13T00:58:16.510Z,88.58
2023-01-13T01:00:43.193Z,88.57
2023-01-13T01:03:09.810Z,88.61
2023-01-13T01:05:36.389Z,88.42
2023-01-13T01:08:02.950Z,88.41
2023-01-13T01:10:29.508Z,88.43
2023-01-13T01:12:56.049Z,88.44
2023-01-13T01:15:23.996Z,88.22
2023-01-13T01:17:50.568Z,88.01
2023-01-13T01:20:17.290Z,87.97
2023-01-13T01:22:43.834Z,88.08
2023-01-13T01:25:10.386Z,88.08
2023-01-13T01:27:36.918Z,87.76
2023-01-13T01:30:04.102Z,87.66
2023-01-13T01:32:33.927Z,87.64
2023-01-13T01:35:00.508Z,87.59
2023-01-13T01:37:27.108Z,87.56
2023-01-13T01:39:53.668Z,87.27
2023-01-13T01:42:20.346Z,87.17
2023-01-13T01:45:01.388Z,86.92
2023-01-13T01:47:29.449Z,86.78
2023-01-13T01:49:58.394Z,86.96
2023-01-13T01:52:29.547Z,87.05
2023-01-13T01:55:01.738Z,86.56
2023-01-13T01:57:32.769Z,86.53
2023-01-13T02:00:01.088Z,86.61
2023-01-13T02:02:28.205Z,86.79
2023-01-13T02:04:54.922Z,86.66
2023-01-13T02:07:25.973Z,86.32
2023-01-13T02:09:53.878Z,86.65
2023-01-13T02:12:20.657Z,86.18
2023-01-13T02:14:47.278Z,86.10
2023-01-13T02:17:30.288Z,86.19
2023-01-13T02:20:34.938Z,86.34
2023-01-13T02:23:34.957Z,86.12
2023-01-13T02:26:30.076Z,85.93
2023-01-13T02:29:09.851Z,85.84
2023-01-13T02:31:41.989Z,85.39
2023-01-13T02:34:15.036Z,85.99
2023-01-13T02:36:50.250Z,85.69
2023-01-13T02:39:24.953Z,85.68
2023-01-13T02:41:56.907Z,85.74
2023-01-13T02:44:28.530Z,85.94
2023-01-13T02:47:02.945Z,85.74
2023-01-13T02:49:34.383Z,85.52
2023-01-13T02:52:08.194Z,85.74
2023-01-13T02:54:37.276Z,85.50
2023-01-13T02:57:06.196Z,85.01
2023-01-13T02:59:33.799Z,85.21
2023-01-13T03:02:02.542Z,85.20
2023-01-13T03:04:51.148Z,85.18
2023-01-13T03:07:53.400Z,85.30
2023-01-13T03:10:29.654Z,85.34
2023-01-13T03:13:06.627Z,85.26
2023-01-13T03:15:42.662Z,85.17
2023-01-13T03:18:19.519Z,85.76
2023-01-13T03:20:56.037Z,85.55
2023-01-13T03:23:30.827Z,85.30
2023-01-13T03:26:08.316Z,85.13
2023-01-13T03:28:41.085Z,85.07
2023-01-13T03:31:11.956Z,85.00
2023-01-13T03:33:43.668Z,85.02
2023-01-13T03:36:12.801Z,85.15
2023-01-13T03:38:43.413Z,85.09
2023-01-13T03:41:15.580Z,85.31
2023-01-13T03:43:47.412Z,85.16
2023-01-13T03:46:19.551Z,85.17
2023-01-13T03:48:52.796Z,85.08
2023-01-13T03:51:23.659Z,85.01
2023-01-13T03:53:55.426Z,84.91
2023-01-13T03:56:27.988Z,85.13
2023-01-13T03:58:55.022Z,85.09
2023-01-13T04:01:25.013Z,84.85
2023-01-13T04:03:57.295Z,84.59
2023-01-13T04:06:29.969Z,84.75
2023-01-13T04:09:03.075Z,84.78
2023-01-13T04:11:35.373Z,84.54
2023-01-13T04:14:03.673Z,84.56
2023-01-13T04:16:31.077Z,84.22
2023-01-13T04:18:59.012Z,84.51
2023-01-13T04:21:26.414Z,84.36
2023-01-13T04:23:52.983Z,84.37
2023-01-13T04:26:19.543Z,84.40
2023-01-13T04:28:46.158Z,84.66
2023-01-13T04:31:12.742Z,84.42
2023-01-13T04:33:39.308Z,84.38
2023-01-13T04:36:07.896Z,84.32
2023-01-13T04:38:34.465Z,84.51
2023-01-13T04:41:01.006Z,84.25
2023-01-13T04:43:27.571Z,84.54
2023-01-13T04:45:54.166Z,84.72
2023-01-13T04:48:20.724Z,84.65
2023-01-13T04:50:47.283Z,84.94
2023-01-13T04:53:15.261Z,84.79
2023-01-13T04:55:41.802Z,85.00
2023-01-13T04:58:10.040Z,85.03
2023-01-13T05:00:37.483Z,84.93
2023-01-13T05:03:04.546Z,85.14
2023-01-13T05:05:31.455Z,85.06
2023-01-13T05:07:57.986Z,85.63
2023-01-13T05:10:26.213Z,86.00
2023-01-13T05:12:52.744Z,87.47
2023-01-13T05:15:19.371Z,88.63
2023-01-13T05:17:46.255Z,89.71
2023-01-13T05:20:13.189Z,89.86
2023-01-13T05:22:39.805Z,89.37
2023-01-13T05:25:08.783Z,89.17
2023-01-13T05:27:36.840Z,88.23
2023-01-13T05:30:04.473Z,88.38
2023-01-13T05:32:31.106Z,88.87
2023-01-13T05:34:57.698Z,88.83
2023-01-13T05:37:24.901Z,88.95
2023-01-13T05:39:51.487Z,89.60
2023-01-13T05:42:18.045Z,89.63
2023-01-13T05:44:45.938Z,89.98
2023-01-13T05:47:12.444Z,90.07
2023-01-13T05:49:40.919Z,90.08
2023-01-13T05:52:08.694Z,90.32
2023-01-13T05:54:35.242Z,90.44
2023-01-13T05:57:01.759Z,90.77
2023-01-13T05:59:28.293Z,90.46
2023-01-13T06:01:56.168Z,90.64
2023-01-13T06:04:22.759Z,90.97
2023-01-13T06:06:49.308Z,90.74
2023-01-13T06:09:16.014Z,90.38
2023-01-13T06:11:42.553Z,90.45
2023-01-13T06:14:09.153Z,90.35
2023-01-13T06:16:35.722Z,90.48
2023-01-13T06:19:03.616Z,90.24
2023-01-13T06:21:32.401Z,90.37
2023-01-13T06:23:59.751Z,90.30
2023-01-13T06:26:29.829Z,90.41
2023-01-13T06:28:56.362Z,89.85
2023-01-13T06:31:23.831Z,90.20
2023-01-13T06:33:55.604Z,90.48
2023-01-13T06:36:27.250Z,90.39
2023-01-13T06:38:57.944Z,89.84
2023-01-13T06:41:27.142Z,90.06
2023-01-13T06:43:53.688Z,90.24
2023-01-13T06:46:20.216Z,90.10
2023-01-13T06:48:46.729Z,89.81
2023-01-13T06:51:13.259Z,89.82
2023-01-13T06:53:41.288Z,89.73
2023-01-13T06:56:08.000Z,89.95
2023-01-13T06:58:34.614Z,90.16
2023-01-13T07:01:01.338Z,89.97
2023-01-13T07:03:27.980Z,89.62
2023-01-13T07:05:55.585Z,90.04
2023-01-13T07:08:22.701Z,89.80
2023-01-13T07:10:51.018Z,90.19
2023-01-13T07:13:17.573Z,90.42
2023-01-13T07:15:52.947Z,90.43
2023-01-13T07:18:19.490Z,89.82
2023-01-13T07:20:52.057Z,89.67
2023-01-13T07:23:18.593Z,89.40
2023-01-13T07:25:45.140Z,89.52
2023-01-13T07:28:13.056Z,89.58
2023-01-13T07:30:40.160Z,89.37
2023-01-13T07:33:06.695Z,89.68
2023-01-13T07:35:33.275Z,89.79
2023-01-13T07:37:59.787Z,89.21
2023-01-13T07:40:26.355Z,89.19
2023-01-13T07:42:52.916Z,88.59
2023-01-13T07:45:20.788Z,88.32
2023-01-13T07:47:51.614Z,87.90
2023-01-13T07:50:18.300Z,87.66
2023-01-13T07:52:44.831Z,87.28
2023-01-13T07:55:11.463Z,86.56
2023-01-13T07:57:37.970Z,86.84
2023-01-13T08:00:05.450Z,86.03
2023-01-13T08:02:33.428Z,85.59
2023-01-13T08:05:00.011Z,85.65
2023-01-13T08:07:26.505Z,84.82
2023-01-13T08:09:53.018Z,84.83
2023-01-13T08:12:19.523Z,84.77
2023-01-13T08:14:46.066Z,84.09
2023-01-13T08:17:12.625Z,83.53
2023-01-13T08:19:40.841Z,83.84
2023-01-13T08:22:07.373Z,83.47
2023-01-13T08:24:33.899Z,83.29
2023-01-13T08:27:00.453Z,83.52
2023-01-13T08:29:26.991Z,83.42
2023-01-13T08:31:53.568Z,83.07
2023-01-13T08:34:20.188Z,82.86
2023-01-13T08:36:49.211Z,83.09
2023-01-13T08:39:15.821Z,83.40
2023-01-13T08:41:43.349Z,83.60
2023-01-13T08:44:09.877Z,83.73
2023-01-13T08:46:36.968Z,83.61
2023-01-13T08:49:03.908Z,83.92
2023-01-13T08:51:30.556Z,84.12
2023-01-13T08:53:58.530Z,84.62
2023-01-13T08:56:25.103Z,84.36
2023-01-13T08:58:52.676Z,84.62
2023-01-13T09:01:22.513Z,84.53
2023-01-13T09:03:49.371Z,84.25
2023-01-13T09:06:15.931Z,84.23
2023-01-13T09:08:43.331Z,84.13
2023-01-13T09:11:18.112Z,84.09
2023-01-13T09:13:44.652Z,83.64
2023-01-13T09:16:11.203Z,83.79
2023-01-13T09:18:37.836Z,83.23
2023-01-13T09:21:04.897Z,82.94
2023-01-13T09:23:31.451Z,82.90
2023-01-13T09:25:58.088Z,81.99
2023-01-13T09:28:25.974Z,81.63
2023-01-13T09:30:52.556Z,81.38
2023-01-13T09:33:19.128Z,81.81
2023-01-13T09:35:45.727Z,81.69
2023-01-13T09:38:12.262Z,80.38
2023-01-13T09:40:40.683Z,79.92
2023-01-13T09:43:17.163Z,79.87
2023-01-13T09:45:50.553Z,79.76
2023-01-13T09:48:18.904Z,79.82
2023-01-13T09:50:55.118Z,79.92
2023-01-13T09:53:25.475Z,80.13
2023-01-13T09:55:52.026Z,80.55
2023-01-13T09:58:19.362Z,80.69
2023-01-13T10:00:55.942Z,80.04
2023-01-13T10:03:26.002Z,80.16
2023-01-13T10:05:58.005Z,80.06
2023-01-13T10:08:27.628Z,79.91
2023-01-13T10:10:56.231Z,79.47
2023-01-13T10:13:25.192Z,79.88
2023-01-13T10:16:22.840Z,79.28
2023-01-13T10:19:02.743Z,78.56
2023-01-13T10:21:51.378Z,78.15
2023-01-13T10:24:26.008Z,78.03
2023-01-13T10:27:02.235Z,78.65
2023-01-13T10:29:30.936Z,78.43
2023-01-13T10:32:00.136Z,78.37
2023-01-13T10:34:28.069Z,77.72
2023-01-13T10:36:56.992Z,77.95
2023-01-13T10:39:23.590Z,77.92
2023-01-13T10:42:01.358Z,78.44
2023-01-13T10:44:28.044Z,77.90
2023-01-13T10:46:56.604Z,77.14
2023-01-13T10:49:33.097Z,77.61
2023-01-13T10:52:00.556Z,77.50
2023-01-13T10:54:27.186Z,76.86
2023-01-13T10:57:18.562Z,76.85
2023-01-13T10:59:45.202Z,76.71
2023-01-13T11:02:25.893Z,77.20
2023-01-13T11:05:09.212Z,77.41
2023-01-13T11:07:38.645Z,76.00
2023-01-13T11:10:21.996Z,75.86
2023-01-13T11:12:59.684Z,75.28
2023-01-13T11:15:38.794Z,74.99
2023-01-13T11:18:13.437Z,74.68
2023-01-13T11:20:45.937Z,74.16
2023-01-13T11:23:18.626Z,73.52
2023-01-13T11:25:49.448Z,73.28
2023-01-13T11:28:35.779Z,73.43
2023-01-13T11:31:10.173Z,73.10
2023-01-13T11:33:41.525Z,72.06
2023-01-13T11:36:14.106Z,71.38
2023-01-13T11:38:49.360Z,71.92
2023-01-13T11:41:24.868Z,72.13
2023-01-13T11:43:55.256Z,70.00
2023-01-13T11:46:25.741Z,70.24
2023-01-13T11:48:52.583Z,69.81
2023-01-13T11:51:32.831Z,70.35
2023-01-13T11:54:18.851Z,69.72
2023-01-13T11:57:04.114Z,69.02
2023-01-13T12:00:00.666Z,68.66
2023-01-13T12:02:47.478Z,68.81
2023-01-13T12:05:23.041Z,68.15
2023-01-13T12:08:02.528Z,67.36
2023-01-13T12:10:44.217Z,67.62
2023-01-13T12:13:22.163Z,67.02
2023-01-13T12:16:14.779Z,67.54
2023-01-13T12:19:15.161Z,67.01
2023-01-13T12:21:58.087Z,66.36
2023-01-13T12:24:31.408Z,66.19
2023-01-13T12:27:02.694Z,66.20
2023-01-13T12:29:32.766Z,65.56
2023-01-13T12:32:01.764Z,65.43
2023-01-13T12:34:50.338Z,66.26
2023-01-13T12:37:25.876Z,66.11
2023-01-13T12:40:15.361Z,65.51
2023-01-13T12:42:48.526Z,65.32
2023-01-13T12:45:26.837Z,65.90
2023-01-13T12:47:53.759Z,65.01
2023-01-13T12:50:42.168Z,64.98
2023-01-13T12:53:38.874Z,65.31
2023-01-13T12:56:39.399Z,65.69
2023-01-13T12:59:42.231Z,65.15
2023-01-13T13:02:28.092Z,64.83
2023-01-13T13:04:56.606Z,65.32
2023-01-13T13:07:32.659Z,64.95
2023-01-13T13:10:02.139Z,65.13
2023-01-13T13:12:53.019Z,65.62
2023-01-13T13:15:21.278Z,65.69
2023-01-13T13:18:22.535Z,65.74
2023-01-13T13:20:55.714Z,65.74
2023-01-13T13:23:44.829Z,65.68
2023-01-13T13:26:18.312Z,65.59
2023-01-13T13:28:49.630Z,65.75
2023-01-13T13:31:28.237Z,66.01
2023-01-13T13:34:13.928Z,65.86
2023-01-13T13:36:56.904Z,65.80
2023-01-13T13:39:26.541Z,66.64
2023-01-13T13:42:02.382Z,65.79
2023-01-13T13:44:33.293Z,65.88
2023-01-13T13:47:02.452Z,66.34
2023-01-13T13:49:38.245Z,65.92
2023-01-13T13:52:08.845Z,65.74
2023-01-13T13:54:35.714Z,65.05
2023-01-13T13:57:02.327Z,65.97
2023-01-13T13:59:30.292Z,66.49
2023-01-13T14:01:59.507Z,65.14
2023-01-13T14:04:27.300Z,65.22
2023-01-13T14:06:55.737Z,65.63
2023-01-13T14:09:23.997Z,65.11
2023-01-13T14:11:59.954Z,64.94
2023-01-13T14:14:26.606Z,64.82
2023-01-13T14:16:54.774Z,64.32
2023-01-13T14:19:27.001Z,64.75
2023-01-13T14:21:53.981Z,64.50
2023-01-13T14:24:20.632Z,64.39
2023-01-13T14:26:47.161Z,64.41
2023-01-13T14:29:18.084Z,64.69
2023-01-13T14:31:45.258Z,64.67
2023-01-13T14:34:32.279Z,64.71
2023-01-13T14:36:59.828Z,63.91
2023-01-13T14:39:35.103Z,63.37
2023-01-13T14:42:01.948Z,63.39
2023-01-13T14:44:31.194Z,63.43
2023-01-13T14:47:00.428Z,64.01
2023-01-13T14:49:34.085Z,63.46
2023-01-13T14:52:07.528Z,63.61
2023-01-13T14:54:51.564Z,63.42
2023-01-13T14:57:25.727Z,63.87
2023-01-13T14:59:59.136Z,62.41
2023-01-13T15:02:47.346Z,63.54
2023-01-13T15:05:39.250Z,63.39
2023-01-13T15:08:22.697Z,62.75
2023-01-13T15:10:51.999Z,62.37
2023-01-13T15:13:29.527Z,62.07
2023-01-13T15:15:58.403Z,62.62
2023-01-13T15:18:25.071Z,62.79
2023-01-13T15:20:53.140Z,62.88
2023-01-13T15:23:20.470Z,62.72
2023-01-13T15:25:47.833Z,63.19
2023-01-13T15:28:17.212Z,62.73
2023-01-13T15:30:43.845Z,63.08
2023-01-13T15:33:12.856Z,63.63
2023-01-13T15:35:42.659Z,63.65
2023-01-13T15:38:12.311Z,63.08
2023-01-13T15:40:39.210Z,62.87
2023-01-13T15:43:05.807Z,63.37
2023-01-13T15:45:34.361Z,63.43
2023-01-13T15:48:02.510Z,63.74
2023-01-13T15:50:29.027Z,63.37
2023-01-13T15:52:55.508Z,63.45
2023-01-13T15:55:23.701Z,63.47
2023-01-13T15:57:50.521Z,64.03
2023-01-13T16:00:19.302Z,64.02
2023-01-13T16:02:46.244Z,63.81
2023-01-13T16:05:13.070Z,64.37
2023-01-13T16:07:39.729Z,64.50
2023-01-13T16:10:15.656Z,64.00
2023-01-13T16:12:43.643Z,64.52
2023-01-13T16:15:13.040Z,64.78
2023-01-13T16:17:40.117Z,65.32
2023-01-13T16:20:12.971Z,65.34
2023-01-13T16:22:39.463Z,66.12
2023-01-13T16:25:06.839Z,67.51
2023-01-13T16:27:33.497Z,66.61
2023-01-13T16:30:01.500Z,66.18
2023-01-13T16:32:28.036Z,66.12
2023-01-13T16:34:54.660Z,65.80
2023-01-13T16:37:23.787Z,66.13
2023-01-13T16:39:50.995Z,66.14
2023-01-13T16:42:17.629Z,65.58
2023-01-13T16:44:44.191Z,66.12
2023-01-13T16:47:16.479Z,66.08
2023-01-13T16:49:43.063Z,66.20
2023-01-13T16:52:09.851Z,66.08
2023-01-13T16:54:36.519Z,65.78
2023-01-13T16:57:03.264Z,65.83
2023-01-13T16:59:29.795Z,65.74
2023-01-13T17:01:56.365Z,65.80
2023-01-13T17:04:24.451Z,65.40
2023-01-13T17:06:55.678Z,66.16
2023-01-13T17:09:23.877Z,66.22
2023-01-13T17:11:54.039Z,66.48
2023-01-13T17:14:21.223Z,67.07
2023-01-13T17:16:48.078Z,68.04
2023-01-13T17:19:14.703Z,68.61
2023-01-13T17:21:42.695Z,67.60
2023-01-13T17:24:09.767Z,69.11
2023-01-13T17:26:38.068Z,68.61
2023-01-13T17:29:06.657Z,68.77
2023-01-13T17:31:35.118Z,69.16
2023-01-13T17:34:02.021Z,69.28
2023-01-13T17:36:29.136Z,69.61
2023-01-13T17:38:57.384Z,69.63
2023-01-13T17:41:24.731Z,70.01
2023-01-13T17:43:52.093Z,69.73
2023-01-13T17:46:19.906Z,70.12
2023-01-13T17:48:46.776Z,70.14
2023-01-13T17:51:14.818Z,69.87
2023-01-13T17:53:41.424Z,69.72
2023-01-13T17:56:10.378Z,69.49
2023-01-13T17:58:37.101Z,69.55
2023-01-13T18:01:07.383Z,69.32
2023-01-13T18:03:34.401Z,69.77
2023-01-13T18:06:02.971Z,69.96
2023-01-13T18:08:29.518Z,69.95
2023-01-13T18:10:55.985Z,70.48
2023-01-13T18:13:23.926Z,70.07
2023-01-13T18:15:59.612Z,70.17
2023-01-13T18:18:26.252Z,70.16
2023-01-13T18:20:53.516Z,70.52
2023-01-13T18:23:20.527Z,70.69
2023-01-13T18:25:47.509Z,70.54
2023-01-13T18:28:14.112Z,70.38
2023-01-13T18:30:42.228Z,70.54
2023-01-13T18:33:08.746Z,70.73
2023-01-13T18:35:38.250Z,70.66
2023-01-13T18:38:04.802Z,70.61
2023-01-13T18:40:31.294Z,70.82
2023-01-13T18:42:57.785Z,70.98
2023-01-13T18:45:26.474Z,71.02
2023-01-13T18:47:56.491Z,71.01
2023-01-13T18:50:23.585Z,71.21
2023-01-13T18:52:50.596Z,71.08
2023-01-13T18:55:17.615Z,70.98
2023-01-13T18:57:44.137Z,71.42
2023-01-13T19:00:12.694Z,71.09
2023-01-13T19:02:39.418Z,70.92
2023-01-13T19:05:07.967Z,70.78
2023-01-13T19:07:34.501Z,70.82
2023-01-13T19:10:01.211Z,70.86
2023-01-13T19:12:27.807Z,71.05
2023-01-13T19:14:55.055Z,70.95
2023-01-13T19:17:23.359Z,71.11
2023-01-13T19:19:51.699Z,70.92
2023-01-13T19:22:21.334Z,70.63
2023-01-13T19:24:47.935Z,70.84
2023-01-13T19:27:16.211Z,70.75
2023-01-13T19:29:50.782Z,70.63
2023-01-13T19:32:19.274Z,70.65
2023-01-13T19:34:46.016Z,70.07
2023-01-13T19:37:12.574Z,70.45
2023-01-13T19:39:40.698Z,70.87
2023-01-13T19:42:07.235Z,70.67
2023-01-13T19:44:34.342Z,70.59
2023-01-13T19:47:00.935Z,70.54
2023-01-13T19:49:27.543Z,70.64
2023-01-13T19:51:54.135Z,70.71
2023-01-13T19:54:20.671Z,70.98
2023-01-13T19:56:48.781Z,70.91
2023-01-13T19:59:15.353Z,70.91
2023-01-13T20:01:42.139Z,70.89
2023-01-13T20:04:08.717Z,71.40
2023-01-13T20:06:35.297Z,71.11
2023-01-13T20:09:01.856Z,70.84
2023-01-13T20:11:28.367Z,71.04
2023-01-13T20:13:56.357Z,71.20
2023-01-13T20:16:23.042Z,71.42
2023-01-13T20:18:49.669Z,71.23
2023-01-13T20:21:16.169Z,71.00
2023-01-13T20:23:43.060Z,71.32
2023-01-13T20:26:09.670Z,71.43
2023-01-13T20:28:36.641Z,71.45
2023-01-13T20:31:06.853Z,71.40
2023-01-13T20:33:33.425Z,71.48
2023-01-13T20:35:59.952Z,71.43
2023-01-13T20:38:26.531Z,71.37
2023-01-13T20:41:02.478Z,71.28
2023-01-13T20:43:29.019Z,72.00
2023-01-13T20:45:55.558Z,71.51
2023-01-13T20:48:23.494Z,71.28
2023-01-13T20:50:53.522Z,71.17
2023-01-13T20:53:20.169Z,71.36
2023-01-13T20:55:46.669Z,71.55
2023-01-13T20:58:13.168Z,71.13
2023-01-13T21:00:39.750Z,71.20
2023-01-13T21:03:06.285Z,71.36
2023-01-13T21:05:36.262Z,71.31
2023-01-13T21:08:02.776Z,71.16
2023-01-13T21:10:29.368Z,71.09
2023-01-13T21:12:55.935Z,70.96
2023-01-13T21:15:22.569Z,71.09
2023-01-13T21:17:51.269Z,71.22
2023-01-13T21:20:18.086Z,71.08
2023-01-13T21:22:47.533Z,71.08
2023-01-13T21:25:15.242Z,71.34
2023-01-13T21:27:42.213Z,71.19
2023-01-13T21:30:09.921Z,71.31
2023-01-13T21:32:36.452Z,71.15
2023-01-13T21:35:03.182Z,71.63
2023-01-13T21:37:29.675Z,71.39
2023-01-13T21:39:57.632Z,71.42
2023-01-13T21:42:24.159Z,71.46
2023-01-13T21:44:50.663Z,71.45
2023-01-13T21:47:18.874Z,71.83
2023-01-13T21:49:45.403Z,71.91
2023-01-13T21:52:12.950Z,71.80
2023-01-13T21:54:39.901Z,72.01
2023-01-13T21:57:07.801Z,71.69
2023-01-13T21:59:34.322Z,72.00
2023-01-13T22:02:24.111Z,71.71
2023-01-13T22:04:47.393Z,71.63
2023-01-13T22:07:14.176Z,71.67
2023-01-13T22:09:40.717Z,71.92
2023-01-13T22:12:08.610Z,71.94
2023-01-13T22:14:35.189Z,71.83
2023-01-13T22:17:01.702Z,71.31
2023-01-13T22:19:28.261Z,71.88
2023-01-13T22:21:54.904Z,71.60
2023-01-13T22:24:21.686Z,71.62
2023-01-13T22:26:48.235Z,71.37
2023-01-13T22:29:16.367Z,71.76
2023-01-13T22:31:42.947Z,71.97
2023-01-13T22:34:12.095Z,71.61
2023-01-13T22:36:38.659Z,72.16
2023-01-13T22:39:05.924Z,72.88
2023-01-13T22:41:32.416Z,72.63
2023-01-13T22:43:58.939Z,72.43
2023-01-13T22:46:26.817Z,72.45
2023-01-13T22:48:53.365Z,72.60
2023-01-13T22:51:19.874Z,72.51
2023-01-13T22:53:46.423Z,72.34
2023-01-13T22:56:17.179Z,72.38
2023-01-13T22:58:44.107Z,72.49
2023-01-13T23:01:13.815Z,72.79
2023-01-13T23:03:42.320Z,72.92
2023-01-13T23:06:09.086Z,72.85
2023-01-13T23:08:35.988Z,73.25
2023-01-13T23:11:03.421Z,73.53
2023-01-13T23:13:30.239Z,73.73
2023-01-13T23:16:00.667Z,73.63
2023-01-13T23:18:27.209Z,73.81
2023-01-13T23:20:55.250Z,73.77
2023-01-13T23:23:21.793Z,74.00
2023-01-13T23:25:49.240Z,73.95
2023-01-13T23:28:15.708Z,74.21
2023-01-13T23:30:42.407Z,74.34
2023-01-13T23:33:08.971Z,74.28
2023-01-13T23:35:35.455Z,74.51
2023-01-13T23:38:03.576Z,74.53
2023-01-13T23:40:30.138Z,74.70
2023-01-13T23:42:56.958Z,74.56
2023-01-13T23:45:23.548Z,74.38
2023-01-13T23:47:50.201Z,74.61
2023-01-13T23:50:17.152Z,74.52
2023-01-13T23:52:43.813Z,74.55
2023-01-13T23:55:11.709Z,74.79
2023-01-13T23:57:38.310Z,74.91
